sensor_id;sensor_type;location;lat;lon;timestamp;temperature;humidity
4964;DHT22;2497;47.410;9.740;2023-07-08T00:00:24;22.00;99.90
4964;DHT22;2497;47.410;9.740;2023-07-08T00:02:52;22.00;99.90
4964;DHT22;2497;47.410;9.740;2023-07-08T00:05:20;21.90;99.90
4964;DHT22;2497;47.410;9.740;2023-07-08T00:07:48;21.80;99.90
4964;DHT22;2497;47.410;9.740;2023-07-08T00:10:17;21.80;99.90
4964;DHT22;2497;47.410;9.740;2023-07-08T00:12:45;21.70;99.90
4964;DHT22;2497;47.410;9.740;2023-07-08T00:15:15;21.60;99.90
4964;DHT22;2497;47.410;9.740;2023-07-08T00:17:43;21.60;99.90
4964;DHT22;2497;47.410;9.740;2023-07-08T00:20:20;21.50;99.90
4964;DHT22;2497;47.410;9.740;2023-07-08T00:22:47;21.50;99.90
4964;DHT22;2497;47.410;9.740;2023-07-08T00:25:16;21.60;99.90
4964;DHT22;2497;47.410;9.740;2023-07-08T00:27:45;21.50;99.90
4964;DHT22;2497;47.410;9.740;2023-07-08T00:30:25;21.60;99.90
4964;DHT22;2497;47.410;9.740;2023-07-08T00:32:53;21.70;99.90
4964;DHT22;2497;47.410;9.740;2023-07-08T00:35:22;21.70;99.90
4964;DHT22;2497;47.410;9.740;2023-07-08T00:37:51;21.80;99.90
4964;DHT22;2497;47.410;9.740;2023-07-08T00:40:21;21.70;99.90
4964;DHT22;2497;47.410;9.740;2023-07-08T00:42:51;21.70;99.90
4964;DHT22;2497;47.410;9.740;2023-07-08T00:45:31;21.70;99.90
4964;DHT22;2497;47.410;9.740;2023-07-08T00:48:05;21.70;99.90
4964;DHT22;2497;47.410;9.740;2023-07-08T00:50:32;21.70;99.90
4964;DHT22;2497;47.410;9.740;2023-07-08T00:53:22;21.70;99.90
4964;DHT22;2497;47.410;9.740;2023-07-08T00:55:50;21.80;99.90
4964;DHT22;2497;47.410;9.740;2023-07-08T00:58:21;21.90;99.90
4964;DHT22;2497;47.410;9.740;2023-07-08T01:00:53;21.90;99.90
4964;DHT22;2497;47.410;9.740;2023-07-08T01:03:23;21.80;99.90
4964;DHT22;2497;47.410;9.740;2023-07-08T01:05:53;21.70;99.90
4964;DHT22;2497;47.410;9.740;2023-07-08T01:08:25;21.70;99.90
4964;DHT22;2497;47.410;9.740;2023-07-08T01:10:58;21.70;99.90
4964;DHT22;2497;47.410;9.740;2023-07-08T01:13:28;21.70;99.90
4964;DHT22;2497;47.410;9.740;2023-07-08T01:15:56;21.70;99.90
4964;DHT22;2497;47.410;9.740;2023-07-08T01:18:26;21.70;99.90
4964;DHT22;2497;47.410;9.740;2023-07-08T01:20:54;21.70;99.90
4964;DHT22;2497;47.410;9.740;2023-07-08T01:23:23;21.60;99.90
4964;DHT22;2497;47.410;9.740;2023-07-08T01:25:51;21.50;99.90
4964;DHT22;2497;47.410;9.740;2023-07-08T01:28:20;21.50;99.90
4964;DHT22;2497;47.410;9.740;2023-07-08T01:30:48;21.50;99.90
4964;DHT22;2497;47.410;9.740;2023-07-08T01:33:18;21.50;99.90
4964;DHT22;2497;47.410;9.740;2023-07-08T01:35:48;21.50;99.90
4964;DHT22;2497;47.410;9.740;2023-07-08T01:38:18;21.50;99.90
4964;DHT22;2497;47.410;9.740;2023-07-08T01:40:51;21.40;99.90
4964;DHT22;2497;47.410;9.740;2023-07-08T01:43:20;21.40;99.90
4964;DHT22;2497;47.410;9.740;2023-07-08T01:45:48;21.30;99.90
4964;DHT22;2497;47.410;9.740;2023-07-08T01:48:19;21.20;99.90
4964;DHT22;2497;47.410;9.740;2023-07-08T01:50:50;21.20;99.90
4964;DHT22;2497;47.410;9.740;2023-07-08T01:53:22;21.10;99.90
4964;DHT22;2497;47.410;9.740;2023-07-08T01:55:50;21.10;99.90
4964;DHT22;2497;47.410;9.740;2023-07-08T01:58:17;21.20;99.90
4964;DHT22;2497;47.410;9.740;2023-07-08T02:00:44;21.20;99.90
4964;DHT22;2497;47.410;9.740;2023-07-08T02:03:14;21.10;99.90
4964;DHT22;2497;47.410;9.740;2023-07-08T02:05:41;21.10;99.90
4964;DHT22;2497;47.410;9.740;2023-07-08T02:08:08;21.10;99.90
4964;DHT22;2497;47.410;9.740;2023-07-08T02:10:37;21.00;99.90
4964;DHT22;2497;47.410;9.740;2023-07-08T02:13:06;21.10;99.90
4964;DHT22;2497;47.410;9.740;2023-07-08T02:15:34;21.00;99.90
4964;DHT22;2497;47.410;9.740;2023-07-08T02:18:03;21.00;99.90
4964;DHT22;2497;47.410;9.740;2023-07-08T02:20:30;21.10;99.90
4964;DHT22;2497;47.410;9.740;2023-07-08T02:22:57;21.10;99.90
4964;DHT22;2497;47.410;9.740;2023-07-08T02:25:24;21.10;99.90
4964;DHT22;2497;47.410;9.740;2023-07-08T02:27:52;21.00;99.90
4964;DHT22;2497;47.410;9.740;2023-07-08T02:30:24;21.00;99.90
4964;DHT22;2497;47.410;9.740;2023-07-08T02:32:51;21.00;99.90
4964;DHT22;2497;47.410;9.740;2023-07-08T02:35:24;21.00;99.90
4964;DHT22;2497;47.410;9.740;2023-07-08T02:37:52;21.00;99.90
4964;DHT22;2497;47.410;9.740;2023-07-08T02:40:19;21.10;99.90
4964;DHT22;2497;47.410;9.740;2023-07-08T02:42:47;21.10;99.90
4964;DHT22;2497;47.410;9.740;2023-07-08T02:45:15;21.10;99.90
4964;DHT22;2497;47.410;9.740;2023-07-08T02:47:45;21.10;99.90
4964;DHT22;2497;47.410;9.740;2023-07-08T02:50:12;21.10;99.90
4964;DHT22;2497;47.410;9.740;2023-07-08T02:52:40;21.10;99.90
4964;DHT22;2497;47.410;9.740;2023-07-08T02:55:07;21.10;99.90
4964;DHT22;2497;47.410;9.740;2023-07-08T02:57:34;21.10;99.90
4964;DHT22;2497;47.410;9.740;2023-07-08T03:00:02;21.10;99.90
4964;DHT22;2497;47.410;9.740;2023-07-08T03:02:33;21.10;99.90
4964;DHT22;2497;47.410;9.740;2023-07-08T03:05:02;21.20;99.90
4964;DHT22;2497;47.410;9.740;2023-07-08T03:07:30;21.30;99.90
4964;DHT22;2497;47.410;9.740;2023-07-08T03:09:59;21.40;99.90
4964;DHT22;2497;47.410;9.740;2023-07-08T03:12:26;21.50;99.90
4964;DHT22;2497;47.410;9.740;2023-07-08T03:14:53;21.70;99.90
4964;DHT22;2497;47.410;9.740;2023-07-08T03:17:20;21.80;99.90
4964;DHT22;2497;47.410;9.740;2023-07-08T03:19:47;21.80;99.90
4964;DHT22;2497;47.410;9.740;2023-07-08T03:22:16;21.80;99.90
4964;DHT22;2497;47.410;9.740;2023-07-08T03:24:43;21.80;99.90
4964;DHT22;2497;47.410;9.740;2023-07-08T03:27:12;21.80;99.90
4964;DHT22;2497;47.410;9.740;2023-07-08T03:29:39;21.70;99.90
4964;DHT22;2497;47.410;9.740;2023-07-08T03:32:10;21.80;99.90
4964;DHT22;2497;47.410;9.740;2023-07-08T03:34:37;21.70;99.90
4964;DHT22;2497;47.410;9.740;2023-07-08T03:37:05;21.60;99.90
4964;DHT22;2497;47.410;9.740;2023-07-08T03:39:33;21.50;99.90
4964;DHT22;2497;47.410;9.740;2023-07-08T03:42:01;21.50;99.90
4964;DHT22;2497;47.410;9.740;2023-07-08T03:44:29;21.50;99.90
4964;DHT22;2497;47.410;9.740;2023-07-08T03:46:56;21.40;99.90
4964;DHT22;2497;47.410;9.740;2023-07-08T03:49:23;21.30;99.90
4964;DHT22;2497;47.410;9.740;2023-07-08T03:51:52;21.30;99.90
4964;DHT22;2497;47.410;9.740;2023-07-08T03:54:22;21.30;99.90
4964;DHT22;2497;47.410;9.740;2023-07-08T03:56:51;21.30;99.90
4964;DHT22;2497;47.410;9.740;2023-07-08T03:59:18;21.30;99.90
4964;DHT22;2497;47.410;9.740;2023-07-08T04:01:47;21.30;99.90
4964;DHT22;2497;47.410;9.740;2023-07-08T04:04:15;21.20;99.90
4964;DHT22;2497;47.410;9.740;2023-07-08T04:06:42;21.20;99.90
4964;DHT22;2497;47.410;9.740;2023-07-08T04:09:10;21.20;99.90
4964;DHT22;2497;47.410;9.740;2023-07-08T04:11:43;21.20;99.90
4964;DHT22;2497;47.410;9.740;2023-07-08T04:14:14;21.10;99.90
4964;DHT22;2497;47.410;9.740;2023-07-08T04:16:49;21.00;99.90
4964;DHT22;2497;47.410;9.740;2023-07-08T04:19:17;21.00;99.90
4964;DHT22;2497;47.410;9.740;2023-07-08T04:21:45;21.00;99.90
4964;DHT22;2497;47.410;9.740;2023-07-08T04:24:13;21.00;99.90
4964;DHT22;2497;47.410;9.740;2023-07-08T04:26:42;21.00;99.90
4964;DHT22;2497;47.410;9.740;2023-07-08T04:29:14;21.10;99.90
4964;DHT22;2497;47.410;9.740;2023-07-08T04:31:42;21.00;99.90
4964;DHT22;2497;47.410;9.740;2023-07-08T04:34:09;21.00;99.90
4964;DHT22;2497;47.410;9.740;2023-07-08T04:36:37;21.10;99.90
4964;DHT22;2497;47.410;9.740;2023-07-08T04:39:05;21.10;99.90
4964;DHT22;2497;47.410;9.740;2023-07-08T04:41:32;21.20;99.90
4964;DHT22;2497;47.410;9.740;2023-07-08T04:44:00;21.10;99.90
4964;DHT22;2497;47.410;9.740;2023-07-08T04:46:34;21.10;99.90
4964;DHT22;2497;47.410;9.740;2023-07-08T04:49:03;21.00;99.90
4964;DHT22;2497;47.410;9.740;2023-07-08T04:51:30;20.90;99.90
4964;DHT22;2497;47.410;9.740;2023-07-08T04:53:57;20.80;99.90
4964;DHT22;2497;47.410;9.740;2023-07-08T04:56:25;20.80;99.90
4964;DHT22;2497;47.410;9.740;2023-07-08T04:58:52;20.70;99.90
4964;DHT22;2497;47.410;9.740;2023-07-08T05:01:19;20.80;99.90
4964;DHT22;2497;47.410;9.740;2023-07-08T05:03:48;20.80;99.90
4964;DHT22;2497;47.410;9.740;2023-07-08T05:06:15;21.00;99.90
4964;DHT22;2497;47.410;9.740;2023-07-08T05:08:42;20.90;99.90
4964;DHT22;2497;47.410;9.740;2023-07-08T05:11:09;20.90;99.90
4964;DHT22;2497;47.410;9.740;2023-07-08T05:13:36;21.00;99.90
4964;DHT22;2497;47.410;9.740;2023-07-08T05:16:03;21.00;99.90
4964;DHT22;2497;47.410;9.740;2023-07-08T05:18:30;21.10;99.90
4964;DHT22;2497;47.410;9.740;2023-07-08T05:20:59;21.10;99.90
4964;DHT22;2497;47.410;9.740;2023-07-08T05:23:26;21.20;99.90
4964;DHT22;2497;47.410;9.740;2023-07-08T05:25:53;21.40;99.90
4964;DHT22;2497;47.410;9.740;2023-07-08T05:28:21;21.40;99.90
4964;DHT22;2497;47.410;9.740;2023-07-08T05:30:52;21.40;99.90
4964;DHT22;2497;47.410;9.740;2023-07-08T05:33:21;21.40;99.90
4964;DHT22;2497;47.410;9.740;2023-07-08T05:35:48;21.40;99.90
4964;DHT22;2497;47.410;9.740;2023-07-08T05:38:16;21.50;99.90
4964;DHT22;2497;47.410;9.740;2023-07-08T05:40:46;21.40;99.90
4964;DHT22;2497;47.410;9.740;2023-07-08T05:43:17;21.40;99.90
4964;DHT22;2497;47.410;9.740;2023-07-08T05:45:47;21.50;99.90
4964;DHT22;2497;47.410;9.740;2023-07-08T05:48:14;21.40;99.90
4964;DHT22;2497;47.410;9.740;2023-07-08T05:50:41;21.50;99.90
4964;DHT22;2497;47.410;9.740;2023-07-08T05:53:10;21.60;99.90
4964;DHT22;2497;47.410;9.740;2023-07-08T05:55:39;21.70;99.90
4964;DHT22;2497;47.410;9.740;2023-07-08T05:58:08;21.70;99.90
4964;DHT22;2497;47.410;9.740;2023-07-08T06:00:35;21.80;99.90
4964;DHT22;2497;47.410;9.740;2023-07-08T06:03:02;21.80;99.90
4964;DHT22;2497;47.410;9.740;2023-07-08T06:05:30;21.80;99.90
4964;DHT22;2497;47.410;9.740;2023-07-08T06:07:58;21.90;99.90
4964;DHT22;2497;47.410;9.740;2023-07-08T06:10:25;22.00;99.90
4964;DHT22;2497;47.410;9.740;2023-07-08T06:12:54;22.10;99.90
4964;DHT22;2497;47.410;9.740;2023-07-08T06:15:21;22.10;99.90
4964;DHT22;2497;47.410;9.740;2023-07-08T06:17:48;22.20;99.90
4964;DHT22;2497;47.410;9.740;2023-07-08T06:20:15;22.30;99.90
4964;DHT22;2497;47.410;9.740;2023-07-08T06:22:42;22.30;99.90
4964;DHT22;2497;47.410;9.740;2023-07-08T06:25:09;22.40;99.90
4964;DHT22;2497;47.410;9.740;2023-07-08T06:27:36;22.50;99.90
4964;DHT22;2497;47.410;9.740;2023-07-08T06:30:06;22.50;99.90
4964;DHT22;2497;47.410;9.740;2023-07-08T06:32:33;22.70;99.90
4964;DHT22;2497;47.410;9.740;2023-07-08T06:35:00;22.60;99.90
4964;DHT22;2497;47.410;9.740;2023-07-08T06:37:27;22.60;99.90
4964;DHT22;2497;47.410;9.740;2023-07-08T06:39:54;22.60;99.90
4964;DHT22;2497;47.410;9.740;2023-07-08T06:42:21;22.70;99.90
4964;DHT22;2497;47.410;9.740;2023-07-08T06:44:48;22.70;99.90
4964;DHT22;2497;47.410;9.740;2023-07-08T06:47:19;22.70;99.90
4964;DHT22;2497;47.410;9.740;2023-07-08T06:49:46;22.80;99.90
4964;DHT22;2497;47.410;9.740;2023-07-08T06:52:14;22.90;99.90
4964;DHT22;2497;47.410;9.740;2023-07-08T06:54:41;22.90;99.90
4964;DHT22;2497;47.410;9.740;2023-07-08T06:57:08;23.00;99.90
4964;DHT22;2497;47.410;9.740;2023-07-08T06:59:35;23.00;99.90
4964;DHT22;2497;47.410;9.740;2023-07-08T07:02:02;23.10;99.90
4964;DHT22;2497;47.410;9.740;2023-07-08T07:04:31;23.10;99.90
4964;DHT22;2497;47.410;9.740;2023-07-08T07:06:58;23.20;99.90
4964;DHT22;2497;47.410;9.740;2023-07-08T07:09:27;23.30;99.90
4964;DHT22;2497;47.410;9.740;2023-07-08T07:11:54;23.30;99.90
4964;DHT22;2497;47.410;9.740;2023-07-08T07:14:21;23.40;99.90
4964;DHT22;2497;47.410;9.740;2023-07-08T07:16:48;23.60;99.90
4964;DHT22;2497;47.410;9.740;2023-07-08T07:19:15;23.60;99.90
4964;DHT22;2497;47.410;9.740;2023-07-08T07:21:44;23.60;99.90
4964;DHT22;2497;47.410;9.740;2023-07-08T07:24:11;23.60;99.90
4964;DHT22;2497;47.410;9.740;2023-07-08T07:26:38;23.60;99.90
4964;DHT22;2497;47.410;9.740;2023-07-08T07:29:05;23.70;99.90
4964;DHT22;2497;47.410;9.740;2023-07-08T07:31:32;23.70;99.90
4964;DHT22;2497;47.410;9.740;2023-07-08T07:34:00;23.80;99.90
4964;DHT22;2497;47.410;9.740;2023-07-08T07:36:27;23.80;99.90
4964;DHT22;2497;47.410;9.740;2023-07-08T07:38:56;24.00;99.90
4964;DHT22;2497;47.410;9.740;2023-07-08T07:41:24;24.30;99.90
4964;DHT22;2497;47.410;9.740;2023-07-08T07:43:52;24.60;99.90
4964;DHT22;2497;47.410;9.740;2023-07-08T07:46:19;24.90;99.90
4964;DHT22;2497;47.410;9.740;2023-07-08T07:48:46;25.00;99.90
4964;DHT22;2497;47.410;9.740;2023-07-08T07:51:13;25.40;99.90
4964;DHT22;2497;47.410;9.740;2023-07-08T07:53:41;25.80;99.90
4964;DHT22;2497;47.410;9.740;2023-07-08T07:56:13;26.10;99.90
4964;DHT22;2497;47.410;9.740;2023-07-08T07:58:40;26.20;99.90
4964;DHT22;2497;47.410;9.740;2023-07-08T08:01:07;26.20;99.90
4964;DHT22;2497;47.410;9.740;2023-07-08T08:03:34;26.00;99.90
4964;DHT22;2497;47.410;9.740;2023-07-08T08:06:01;25.90;99.90
4964;DHT22;2497;47.410;9.740;2023-07-08T08:08:28;25.90;99.90
4964;DHT22;2497;47.410;9.740;2023-07-08T08:10:55;25.90;99.90
4964;DHT22;2497;47.410;9.740;2023-07-08T08:13:26;25.90;99.90
4964;DHT22;2497;47.410;9.740;2023-07-08T08:15:56;25.80;99.90
4964;DHT22;2497;47.410;9.740;2023-07-08T08:18:23;25.70;99.90
4964;DHT22;2497;47.410;9.740;2023-07-08T08:20:50;25.60;99.90
4964;DHT22;2497;47.410;9.740;2023-07-08T08:23:18;25.70;99.90
4964;DHT22;2497;47.410;9.740;2023-07-08T08:25:46;25.90;99.90
4964;DHT22;2497;47.410;9.740;2023-07-08T08:28:13;26.00;99.90
4964;DHT22;2497;47.410;9.740;2023-07-08T08:30:42;26.20;99.90
4964;DHT22;2497;47.410;9.740;2023-07-08T08:33:13;27.10;99.90
4964;DHT22;2497;47.410;9.740;2023-07-08T08:35:41;27.80;99.90
4964;DHT22;2497;47.410;9.740;2023-07-08T08:38:08;27.90;99.90
4964;DHT22;2497;47.410;9.740;2023-07-08T08:40:35;27.90;99.90
4964;DHT22;2497;47.410;9.740;2023-07-08T08:43:04;28.10;99.90
4964;DHT22;2497;47.410;9.740;2023-07-08T08:45:35;27.80;99.90
4964;DHT22;2497;47.410;9.740;2023-07-08T08:48:11;27.70;99.90
4964;DHT22;2497;47.410;9.740;2023-07-08T08:50:44;28.10;99.90
4964;DHT22;2497;47.410;9.740;2023-07-08T08:53:15;28.00;99.90
4964;DHT22;2497;47.410;9.740;2023-07-08T08:55:43;28.10;99.90
4964;DHT22;2497;47.410;9.740;2023-07-08T08:58:23;27.90;99.90
4964;DHT22;2497;47.410;9.740;2023-07-08T09:00:58;27.40;99.90
4964;DHT22;2497;47.410;9.740;2023-07-08T09:03:36;27.30;99.90
4964;DHT22;2497;47.410;9.740;2023-07-08T09:06:11;27.60;99.90
4964;DHT22;2497;47.410;9.740;2023-07-08T09:08:39;27.70;99.90
4964;DHT22;2497;47.410;9.740;2023-07-08T09:11:27;27.70;99.90
4964;DHT22;2497;47.410;9.740;2023-07-08T09:14:05;27.80;99.90
4964;DHT22;2497;47.410;9.740;2023-07-08T09:16:42;27.60;99.90
4964;DHT22;2497;47.410;9.740;2023-07-08T09:19:18;27.90;99.90
4964;DHT22;2497;47.410;9.740;2023-07-08T09:21:57;28.10;99.90
4964;DHT22;2497;47.410;9.740;2023-07-08T09:24:32;27.60;99.90
4964;DHT22;2497;47.410;9.740;2023-07-08T09:27:06;27.80;99.90
4964;DHT22;2497;47.410;9.740;2023-07-08T09:29:33;27.50;99.90
4964;DHT22;2497;47.410;9.740;2023-07-08T09:32:14;27.30;99.90
4964;DHT22;2497;47.410;9.740;2023-07-08T09:34:46;27.20;99.90
4964;DHT22;2497;47.410;9.740;2023-07-08T09:37:31;27.10;99.90
4964;DHT22;2497;47.410;9.740;2023-07-08T09:40:00;27.40;99.90
4964;DHT22;2497;47.410;9.740;2023-07-08T09:42:31;27.30;99.90
4964;DHT22;2497;47.410;9.740;2023-07-08T09:45:00;27.40;99.90
4964;DHT22;2497;47.410;9.740;2023-07-08T09:47:35;27.70;99.90
4964;DHT22;2497;47.410;9.740;2023-07-08T09:50:16;27.50;99.90
4964;DHT22;2497;47.410;9.740;2023-07-08T09:52:46;27.60;99.90
4964;DHT22;2497;47.410;9.740;2023-07-08T09:55:19;28.10;99.90
4964;DHT22;2497;47.410;9.740;2023-07-08T09:57:50;28.50;99.90
4964;DHT22;2497;47.410;9.740;2023-07-08T10:00:24;29.20;99.90
4964;DHT22;2497;47.410;9.740;2023-07-08T10:02:55;29.40;99.90
4964;DHT22;2497;47.410;9.740;2023-07-08T10:05:27;29.60;99.90
4964;DHT22;2497;47.410;9.740;2023-07-08T10:07:56;29.80;99.90
4964;DHT22;2497;47.410;9.740;2023-07-08T10:10:28;30.20;99.90
4964;DHT22;2497;47.410;9.740;2023-07-08T10:12:58;30.30;99.90
4964;DHT22;2497;47.410;9.740;2023-07-08T10:15:33;30.50;99.90
4964;DHT22;2497;47.410;9.740;2023-07-08T10:18:04;31.70;99.90
4964;DHT22;2497;47.410;9.740;2023-07-08T10:20:46;31.30;99.90
4964;DHT22;2497;47.410;9.740;2023-07-08T10:23:25;31.30;99.90
4964;DHT22;2497;47.410;9.740;2023-07-08T10:26:00;30.70;99.90
4964;DHT22;2497;47.410;9.740;2023-07-08T10:28:37;30.00;99.90
4964;DHT22;2497;47.410;9.740;2023-07-08T10:31:15;29.70;99.90
4964;DHT22;2497;47.410;9.740;2023-07-08T10:33:55;29.90;99.90
4964;DHT22;2497;47.410;9.740;2023-07-08T10:36:31;29.90;99.90
4964;DHT22;2497;47.410;9.740;2023-07-08T10:39:24;29.50;99.90
4964;DHT22;2497;47.410;9.740;2023-07-08T10:42:02;29.40;99.90
4964;DHT22;2497;47.410;9.740;2023-07-08T10:44:37;29.10;99.90
4964;DHT22;2497;47.410;9.740;2023-07-08T10:47:17;29.00;99.90
4964;DHT22;2497;47.410;9.740;2023-07-08T10:49:58;28.60;99.90
4964;DHT22;2497;47.410;9.740;2023-07-08T10:52:46;28.40;99.90
4964;DHT22;2497;47.410;9.740;2023-07-08T10:55:25;28.20;99.90
4964;DHT22;2497;47.410;9.740;2023-07-08T10:58:14;28.10;99.90
4964;DHT22;2497;47.410;9.740;2023-07-08T11:01:03;28.00;99.90
4964;DHT22;2497;47.410;9.740;2023-07-08T11:03:59;27.80;99.90
4964;DHT22;2497;47.410;9.740;2023-07-08T11:06:37;27.90;99.90
4964;DHT22;2497;47.410;9.740;2023-07-08T11:09:16;28.40;99.90
4964;DHT22;2497;47.410;9.740;2023-07-08T11:11:51;28.60;99.90
4964;DHT22;2497;47.410;9.740;2023-07-08T11:14:24;28.80;99.90
4964;DHT22;2497;47.410;9.740;2023-07-08T11:16:58;28.90;99.90
4964;DHT22;2497;47.410;9.740;2023-07-08T11:19:32;28.80;99.90
4964;DHT22;2497;47.410;9.740;2023-07-08T11:22:05;28.80;99.90
4964;DHT22;2497;47.410;9.740;2023-07-08T11:24:40;29.00;99.90
4964;DHT22;2497;47.410;9.740;2023-07-08T11:27:15;29.30;99.90
4964;DHT22;2497;47.410;9.740;2023-07-08T11:29:50;29.30;99.90
4964;DHT22;2497;47.410;9.740;2023-07-08T11:32:25;29.10;99.90
4964;DHT22;2497;47.410;9.740;2023-07-08T11:34:57;28.90;99.90
4964;DHT22;2497;47.410;9.740;2023-07-08T11:37:26;29.00;99.90
4964;DHT22;2497;47.410;9.740;2023-07-08T11:39:59;28.70;99.90
4964;DHT22;2497;47.410;9.740;2023-07-08T11:42:35;28.80;99.90
4964;DHT22;2497;47.410;9.740;2023-07-08T11:45:07;28.90;99.90
4964;DHT22;2497;47.410;9.740;2023-07-08T11:47:38;29.00;99.90
4964;DHT22;2497;47.410;9.740;2023-07-08T11:50:14;28.70;99.90
4964;DHT22;2497;47.410;9.740;2023-07-08T11:52:51;28.30;99.90
4964;DHT22;2497;47.410;9.740;2023-07-08T11:55:24;28.40;99.90
4964;DHT22;2497;47.410;9.740;2023-07-08T11:57:54;28.60;99.90
4964;DHT22;2497;47.410;9.740;2023-07-08T12:00:25;29.00;99.90
4964;DHT22;2497;47.410;9.740;2023-07-08T12:03:20;29.30;99.90
4964;DHT22;2497;47.410;9.740;2023-07-08T12:05:49;29.50;99.90
4964;DHT22;2497;47.410;9.740;2023-07-08T12:08:33;29.70;99.90
4964;DHT22;2497;47.410;9.740;2023-07-08T12:11:07;29.90;99.90
4964;DHT22;2497;47.410;9.740;2023-07-08T12:13:37;29.90;99.90
4964;DHT22;2497;47.410;9.740;2023-07-08T12:16:08;30.10;99.90
4964;DHT22;2497;47.410;9.740;2023-07-08T12:18:39;29.70;99.90
4964;DHT22;2497;47.410;9.740;2023-07-08T12:21:12;29.30;99.90
4964;DHT22;2497;47.410;9.740;2023-07-08T12:23:44;29.50;99.90
4964;DHT22;2497;47.410;9.740;2023-07-08T12:26:16;29.20;99.90
4964;DHT22;2497;47.410;9.740;2023-07-08T12:28:44;29.40;99.90
4964;DHT22;2497;47.410;9.740;2023-07-08T12:31:16;29.80;99.90
4964;DHT22;2497;47.410;9.740;2023-07-08T12:33:44;29.90;99.90
4964;DHT22;2497;47.410;9.740;2023-07-08T12:36:19;30.20;99.90
4964;DHT22;2497;47.410;9.740;2023-07-08T12:38:47;30.30;99.90
4964;DHT22;2497;47.410;9.740;2023-07-08T12:41:22;30.30;99.90
4964;DHT22;2497;47.410;9.740;2023-07-08T12:43:53;30.40;99.90
4964;DHT22;2497;47.410;9.740;2023-07-08T12:46:23;30.20;99.90
4964;DHT22;2497;47.410;9.740;2023-07-08T12:48:51;30.30;99.90
4964;DHT22;2497;47.410;9.740;2023-07-08T12:51:20;30.30;99.90
4964;DHT22;2497;47.410;9.740;2023-07-08T12:53:49;30.10;99.90
4964;DHT22;2497;47.410;9.740;2023-07-08T12:56:19;30.30;99.90
4964;DHT22;2497;47.410;9.740;2023-07-08T12:58:50;30.20;99.90
4964;DHT22;2497;47.410;9.740;2023-07-08T13:01:20;30.30;99.90
4964;DHT22;2497;47.410;9.740;2023-07-08T13:03:51;30.20;99.90
4964;DHT22;2497;47.410;9.740;2023-07-08T13:06:22;29.70;99.90
4964;DHT22;2497;47.410;9.740;2023-07-08T13:08:54;29.60;99.90
4964;DHT22;2497;47.410;9.740;2023-07-08T13:11:28;29.90;99.90
4964;DHT22;2497;47.410;9.740;2023-07-08T13:13:58;30.00;99.90
4964;DHT22;2497;47.410;9.740;2023-07-08T13:16:31;30.00;99.90
4964;DHT22;2497;47.410;9.740;2023-07-08T13:19:05;30.20;99.90
4964;DHT22;2497;47.410;9.740;2023-07-08T13:21:32;30.50;99.90
4964;DHT22;2497;47.410;9.740;2023-07-08T13:23:59;30.70;99.90
4964;DHT22;2497;47.410;9.740;2023-07-08T13:26:30;30.80;99.90
4964;DHT22;2497;47.410;9.740;2023-07-08T13:29:00;30.90;99.90
4964;DHT22;2497;47.410;9.740;2023-07-08T13:31:33;31.20;99.90
4964;DHT22;2497;47.410;9.740;2023-07-08T13:34:07;30.80;99.90
4964;DHT22;2497;47.410;9.740;2023-07-08T13:36:37;31.00;99.90
4964;DHT22;2497;47.410;9.740;2023-07-08T13:39:19;31.30;99.90
4964;DHT22;2497;47.410;9.740;2023-07-08T13:41:55;31.50;99.90
4964;DHT22;2497;47.410;9.740;2023-07-08T13:44:23;31.40;99.90
4964;DHT22;2497;47.410;9.740;2023-07-08T13:46:56;31.40;99.90
4964;DHT22;2497;47.410;9.740;2023-07-08T13:49:39;31.10;99.90
4964;DHT22;2497;47.410;9.740;2023-07-08T13:52:19;31.00;99.90
4964;DHT22;2497;47.410;9.740;2023-07-08T13:54:49;30.70;99.90
4964;DHT22;2497;47.410;9.740;2023-07-08T13:57:22;30.40;99.90
4964;DHT22;2497;47.410;9.740;2023-07-08T13:59:49;30.50;99.90
4964;DHT22;2497;47.410;9.740;2023-07-08T14:02:19;30.50;99.90
4964;DHT22;2497;47.410;9.740;2023-07-08T14:04:50;30.50;99.90
4964;DHT22;2497;47.410;9.740;2023-07-08T14:07:19;30.30;99.90
4964;DHT22;2497;47.410;9.740;2023-07-08T14:09:46;30.30;99.90
4964;DHT22;2497;47.410;9.740;2023-07-08T14:12:13;30.50;99.90
4964;DHT22;2497;47.410;9.740;2023-07-08T14:14:42;30.60;99.90
4964;DHT22;2497;47.410;9.740;2023-07-08T14:17:12;30.70;99.90
4964;DHT22;2497;47.410;9.740;2023-07-08T14:19:43;30.40;99.90
4964;DHT22;2497;47.410;9.740;2023-07-08T14:22:21;30.50;99.90
4964;DHT22;2497;47.410;9.740;2023-07-08T14:24:49;30.60;99.90
4964;DHT22;2497;47.410;9.740;2023-07-08T14:27:16;30.50;99.90
4964;DHT22;2497;47.410;9.740;2023-07-08T14:29:46;30.50;99.90
4964;DHT22;2497;47.410;9.740;2023-07-08T14:32:16;30.70;99.90
4964;DHT22;2497;47.410;9.740;2023-07-08T14:34:50;30.70;99.90
4964;DHT22;2497;47.410;9.740;2023-07-08T14:37:19;31.10;99.90
4964;DHT22;2497;47.410;9.740;2023-07-08T14:39:46;31.20;99.90
4964;DHT22;2497;47.410;9.740;2023-07-08T14:42:15;31.10;99.90
4964;DHT22;2497;47.410;9.740;2023-07-08T14:44:46;30.70;99.90
4964;DHT22;2497;47.410;9.740;2023-07-08T14:47:18;30.40;99.90
4964;DHT22;2497;47.410;9.740;2023-07-08T14:49:45;30.40;99.90
4964;DHT22;2497;47.410;9.740;2023-07-08T14:52:12;30.60;99.90
4964;DHT22;2497;47.410;9.740;2023-07-08T14:54:40;30.80;99.90
4964;DHT22;2497;47.410;9.740;2023-07-08T14:57:12;30.70;99.90
4964;DHT22;2497;47.410;9.740;2023-07-08T14:59:41;30.90;99.90
4964;DHT22;2497;47.410;9.740;2023-07-08T15:02:18;30.80;99.90
4964;DHT22;2497;47.410;9.740;2023-07-08T15:04:46;30.50;99.90
4964;DHT22;2497;47.410;9.740;2023-07-08T15:07:13;30.40;99.90
4964;DHT22;2497;47.410;9.740;2023-07-08T15:09:40;30.20;99.90
4964;DHT22;2497;47.410;9.740;2023-07-08T15:12:10;29.90;99.90
4964;DHT22;2497;47.410;9.740;2023-07-08T15:14:38;29.50;99.90
4964;DHT22;2497;47.410;9.740;2023-07-08T15:17:10;29.40;99.90
4964;DHT22;2497;47.410;9.740;2023-07-08T15:19:41;29.40;99.90
4964;DHT22;2497;47.410;9.740;2023-07-08T15:22:08;29.40;99.90
4964;DHT22;2497;47.410;9.740;2023-07-08T15:24:35;29.60;99.90
4964;DHT22;2497;47.410;9.740;2023-07-08T15:27:03;29.50;99.90
4964;DHT22;2497;47.410;9.740;2023-07-08T15:29:32;29.30;99.90
4964;DHT22;2497;47.410;9.740;2023-07-08T15:32:00;29.30;99.90
4964;DHT22;2497;47.410;9.740;2023-07-08T15:34:27;29.00;99.90
4964;DHT22;2497;47.410;9.740;2023-07-08T15:36:56;28.80;99.90
4964;DHT22;2497;47.410;9.740;2023-07-08T15:39:23;28.50;99.90
4964;DHT22;2497;47.410;9.740;2023-07-08T15:41:52;28.30;99.90
4964;DHT22;2497;47.410;9.740;2023-07-08T15:44:19;28.10;99.90
4964;DHT22;2497;47.410;9.740;2023-07-08T15:46:48;28.10;99.90
4964;DHT22;2497;47.410;9.740;2023-07-08T15:49:18;28.20;99.90
4964;DHT22;2497;47.410;9.740;2023-07-08T15:51:46;28.30;99.90
4964;DHT22;2497;47.410;9.740;2023-07-08T15:54:16;28.20;99.90
4964;DHT22;2497;47.410;9.740;2023-07-08T15:56:43;28.20;99.90
4964;DHT22;2497;47.410;9.740;2023-07-08T15:59:13;28.20;99.90
4964;DHT22;2497;47.410;9.740;2023-07-08T16:01:42;28.20;99.90
4964;DHT22;2497;47.410;9.740;2023-07-08T16:04:21;28.20;99.90
4964;DHT22;2497;47.410;9.740;2023-07-08T16:06:49;28.20;99.90
4964;DHT22;2497;47.410;9.740;2023-07-08T16:09:18;28.20;99.90
4964;DHT22;2497;47.410;9.740;2023-07-08T16:11:45;28.20;99.90
4964;DHT22;2497;47.410;9.740;2023-07-08T16:14:13;28.30;99.90
4964;DHT22;2497;47.410;9.740;2023-07-08T16:16:41;28.30;99.90
4964;DHT22;2497;47.410;9.740;2023-07-08T16:19:09;28.30;99.90
4964;DHT22;2497;47.410;9.740;2023-07-08T16:21:37;28.30;99.90